sensor_id;sensor_type;location;lat;lon;timestamp;P1;durP1;ratioP1;P2;durP2;ratioP2
4278;SDS011;2153;47.744;10.580;2022-09-09T00:00:11;13.57;;;2.13;;
4278;SDS011;2153;47.744;10.580;2022-09-09T00:02:40;17.07;;;2.00;;
4278;SDS011;2153;47.744;10.580;2022-09-09T00:05:14;18.63;;;1.93;;
4278;SDS011;2153;47.744;10.580;2022-09-09T00:07:53;13.57;;;2.07;;
4278;SDS011;2153;47.744;10.580;2022-09-09T00:10:26;12.50;;;2.10;;
4278;SDS011;2153;47.744;10.580;2022-09-09T00:12:57;12.47;;;2.27;;
4278;SDS011;2153;47.744;10.580;2022-09-09T00:15:32;16.10;;;1.90;;
4278;SDS011;2153;47.744;10.580;2022-09-09T00:18:08;13.90;;;1.90;;
4278;SDS011;2153;47.744;10.580;2022-09-09T00:20:45;24.30;;;2.30;;
4278;SDS011;2153;47.744;10.580;2022-09-09T00:23:23;13.87;;;2.00;;
4278;SDS011;2153;47.744;10.580;2022-09-09T00:25:54;12.63;;;1.90;;
4278;SDS011;2153;47.744;10.580;2022-09-09T00:28:27;12.40;;;1.80;;
4278;SDS011;2153;47.744;10.580;2022-09-09T00:30:57;13.77;;;2.07;;
4278;SDS011;2153;47.744;10.580;2022-09-09T00:33:27;12.97;;;2.03;;
4278;SDS011;2153;47.744;10.580;2022-09-09T00:35:57;13.40;;;1.87;;
4278;SDS011;2153;47.744;10.580;2022-09-09T00:38:28;12.20;;;1.80;;
4278;SDS011;2153;47.744;10.580;2022-09-09T00:41:00;17.17;;;2.00;;
4278;SDS011;2153;47.744;10.580;2022-09-09T00:43:33;16.80;;;1.90;;
4278;SDS011;2153;47.744;10.580;2022-09-09T00:46:19;12.60;;;2.30;;
4278;SDS011;2153;47.744;10.580;2022-09-09T00:49:02;15.03;;;2.00;;
4278;SDS011;2153;47.744;10.580;2022-09-09T00:51:39;12.33;;;1.90;;
4278;SDS011;2153;47.744;10.580;2022-09-09T00:54:23;13.63;;;2.13;;
4278;SDS011;2153;47.744;10.580;2022-09-09T00:57:00;11.63;;;1.70;;
4278;SDS011;2153;47.744;10.580;2022-09-09T00:59:39;12.40;;;1.83;;
4278;SDS011;2153;47.744;10.580;2022-09-09T01:02:13;18.53;;;2.23;;
4278;SDS011;2153;47.744;10.580;2022-09-09T01:04:47;12.30;;;1.97;;
4278;SDS011;2153;47.744;10.580;2022-09-09T01:07:15;12.23;;;1.77;;
4278;SDS011;2153;47.744;10.580;2022-09-09T01:12:35;13.93;;;2.00;;
4278;SDS011;2153;47.744;10.580;2022-09-09T01:15:10;14.23;;;2.07;;
4278;SDS011;2153;47.744;10.580;2022-09-09T01:17:47;15.30;;;1.80;;
4278;SDS011;2153;47.744;10.580;2022-09-09T01:20:20;12.20;;;2.07;;
4278;SDS011;2153;47.744;10.580;2022-09-09T01:22:53;13.67;;;2.00;;
4278;SDS011;2153;47.744;10.580;2022-09-09T01:28:39;16.43;;;2.20;;
4278;SDS011;2153;47.744;10.580;2022-09-09T01:31:09;15.87;;;2.13;;
4278;SDS011;2153;47.744;10.580;2022-09-09T01:33:40;13.40;;;2.07;;
4278;SDS011;2153;47.744;10.580;2022-09-09T01:36:08;13.10;;;1.90;;
4278;SDS011;2153;47.744;10.580;2022-09-09T01:38:36;14.77;;;2.20;;
4278;SDS011;2153;47.744;10.580;2022-09-09T01:41:04;14.40;;;2.30;;
4278;SDS011;2153;47.744;10.580;2022-09-09T01:43:32;15.47;;;2.37;;
4278;SDS011;2153;47.744;10.580;2022-09-09T01:45:59;12.90;;;2.13;;
4278;SDS011;2153;47.744;10.580;2022-09-09T01:48:28;13.53;;;3.23;;
4278;SDS011;2153;47.744;10.580;2022-09-09T01:50:55;14.40;;;2.43;;
4278;SDS011;2153;47.744;10.580;2022-09-09T01:53:22;15.13;;;2.97;;
4278;SDS011;2153;47.744;10.580;2022-09-09T01:55:53;15.80;;;2.40;;
4278;SDS011;2153;47.744;10.580;2022-09-09T01:58:32;12.67;;;2.17;;
4278;SDS011;2153;47.744;10.580;2022-09-09T02:01:06;13.63;;;2.40;;
4278;SDS011;2153;47.744;10.580;2022-09-09T02:03:37;14.30;;;2.33;;
4278;SDS011;2153;47.744;10.580;2022-09-09T02:06:08;12.70;;;2.60;;
4278;SDS011;2153;47.744;10.580;2022-09-09T02:08:47;16.63;;;2.50;;
4278;SDS011;2153;47.744;10.580;2022-09-09T02:11:16;17.80;;;2.77;;
4278;SDS011;2153;47.744;10.580;2022-09-09T02:13:45;13.93;;;2.50;;
4278;SDS011;2153;47.744;10.580;2022-09-09T02:16:15;13.27;;;2.37;;
4278;SDS011;2153;47.744;10.580;2022-09-09T02:18:48;15.30;;;2.00;;
4278;SDS011;2153;47.744;10.580;2022-09-09T02:21:17;13.07;;;1.87;;
4278;SDS011;2153;47.744;10.580;2022-09-09T02:23:46;15.30;;;2.30;;
4278;SDS011;2153;47.744;10.580;2022-09-09T02:26:17;12.60;;;2.20;;
4278;SDS011;2153;47.744;10.580;2022-09-09T02:28:48;12.97;;;2.47;;
4278;SDS011;2153;47.744;10.580;2022-09-09T02:31:16;13.33;;;2.20;;
4278;SDS011;2153;47.744;10.580;2022-09-09T02:33:48;14.67;;;2.20;;
4278;SDS011;2153;47.744;10.580;2022-09-09T02:36:20;16.03;;;2.37;;
4278;SDS011;2153;47.744;10.580;2022-09-09T02:38:50;18.63;;;2.00;;
4278;SDS011;2153;47.744;10.580;2022-09-09T02:41:19;18.90;;;2.43;;
4278;SDS011;2153;47.744;10.580;2022-09-09T02:43:51;14.37;;;2.10;;
4278;SDS011;2153;47.744;10.580;2022-09-09T02:46:23;12.53;;;2.57;;
4278;SDS011;2153;47.744;10.580;2022-09-09T02:48:58;14.90;;;2.60;;
4278;SDS011;2153;47.744;10.580;2022-09-09T02:51:29;13.30;;;2.43;;
4278;SDS011;2153;47.744;10.580;2022-09-09T02:54:04;17.67;;;2.60;;
4278;SDS011;2153;47.744;10.580;2022-09-09T02:56:43;16.60;;;2.07;;
4278;SDS011;2153;47.744;10.580;2022-09-09T02:59:16;13.77;;;2.30;;
4278;SDS011;2153;47.744;10.580;2022-09-09T03:01:43;15.00;;;2.77;;
4278;SDS011;2153;47.744;10.580;2022-09-09T03:04:10;14.83;;;2.10;;
4278;SDS011;2153;47.744;10.580;2022-09-09T03:06:36;12.70;;;2.27;;
4278;SDS011;2153;47.744;10.580;2022-09-09T03:09:03;13.23;;;2.20;;
4278;SDS011;2153;47.744;10.580;2022-09-09T03:11:30;13.23;;;2.77;;
4278;SDS011;2153;47.744;10.580;2022-09-09T03:13:57;12.50;;;1.93;;
4278;SDS011;2153;47.744;10.580;2022-09-09T03:16:25;15.10;;;3.40;;
4278;SDS011;2153;47.744;10.580;2022-09-09T03:18:52;22.07;;;2.37;;
4278;SDS011;2153;47.744;10.580;2022-09-09T03:21:19;13.70;;;2.00;;
4278;SDS011;2153;47.744;10.580;2022-09-09T03:23:46;13.60;;;2.67;;
4278;SDS011;2153;47.744;10.580;2022-09-09T03:26:13;12.60;;;2.30;;
4278;SDS011;2153;47.744;10.580;2022-09-09T03:28:40;13.00;;;2.27;;
4278;SDS011;2153;47.744;10.580;2022-09-09T03:31:07;12.90;;;2.20;;
4278;SDS011;2153;47.744;10.580;2022-09-09T03:33:36;12.90;;;2.33;;
4278;SDS011;2153;47.744;10.580;2022-09-09T03:36:03;16.33;;;2.03;;
4278;SDS011;2153;47.744;10.580;2022-09-09T03:38:32;14.30;;;2.20;;
4278;SDS011;2153;47.744;10.580;2022-09-09T03:40:59;12.77;;;2.27;;
4278;SDS011;2153;47.744;10.580;2022-09-09T03:43:27;22.00;;;2.07;;
4278;SDS011;2153;47.744;10.580;2022-09-09T03:45:54;14.80;;;2.20;;
4278;SDS011;2153;47.744;10.580;2022-09-09T03:48:21;18.07;;;2.47;;
4278;SDS011;2153;47.744;10.580;2022-09-09T03:50:50;20.23;;;2.10;;
4278;SDS011;2153;47.744;10.580;2022-09-09T03:53:19;13.70;;;2.60;;
4278;SDS011;2153;47.744;10.580;2022-09-09T03:55:48;12.53;;;2.37;;
4278;SDS011;2153;47.744;10.580;2022-09-09T03:58:17;17.27;;;2.60;;
4278;SDS011;2153;47.744;10.580;2022-09-09T04:00:52;12.37;;;2.30;;
4278;SDS011;2153;47.744;10.580;2022-09-09T04:03:20;17.43;;;2.30;;
4278;SDS011;2153;47.744;10.580;2022-09-09T04:05:49;14.40;;;2.70;;
4278;SDS011;2153;47.744;10.580;2022-09-09T04:08:16;19.73;;;3.50;;
4278;SDS011;2153;47.744;10.580;2022-09-09T04:10:44;16.20;;;2.50;;
4278;SDS011;2153;47.744;10.580;2022-09-09T04:13:11;13.83;;;2.20;;
4278;SDS011;2153;47.744;10.580;2022-09-09T04:15:41;15.80;;;2.60;;
4278;SDS011;2153;47.744;10.580;2022-09-09T04:18:08;12.60;;;2.40;;
4278;SDS011;2153;47.744;10.580;2022-09-09T04:20:35;18.23;;;2.20;;
4278;SDS011;2153;47.744;10.580;2022-09-09T04:23:04;13.70;;;2.20;;
4278;SDS011;2153;47.744;10.580;2022-09-09T04:25:30;14.70;;;2.60;;
4278;SDS011;2153;47.744;10.580;2022-09-09T04:27:58;14.53;;;2.47;;
4278;SDS011;2153;47.744;10.580;2022-09-09T04:30:25;25.13;;;2.30;;
4278;SDS011;2153;47.744;10.580;2022-09-09T04:32:53;12.80;;;2.10;;
4278;SDS011;2153;47.744;10.580;2022-09-09T04:35:20;13.67;;;2.77;;
4278;SDS011;2153;47.744;10.580;2022-09-09T04:37:46;15.53;;;2.23;;
4278;SDS011;2153;47.744;10.580;2022-09-09T04:40:15;12.10;;;2.13;;
4278;SDS011;2153;47.744;10.580;2022-09-09T04:42:42;12.83;;;2.77;;
4278;SDS011;2153;47.744;10.580;2022-09-09T04:45:09;18.20;;;2.67;;
4278;SDS011;2153;47.744;10.580;2022-09-09T04:47:38;12.93;;;2.60;;
4278;SDS011;2153;47.744;10.580;2022-09-09T04:50:05;19.13;;;3.00;;
4278;SDS011;2153;47.744;10.580;2022-09-09T04:52:33;24.33;;;3.17;;
4278;SDS011;2153;47.744;10.580;2022-09-09T04:55:00;18.53;;;3.53;;
4278;SDS011;2153;47.744;10.580;2022-09-09T04:57:28;12.57;;;2.20;;
4278;SDS011;2153;47.744;10.580;2022-09-09T04:59:58;14.13;;;2.67;;
4278;SDS011;2153;47.744;10.580;2022-09-09T05:02:25;16.90;;;2.77;;
4278;SDS011;2153;47.744;10.580;2022-09-09T05:04:51;16.40;;;2.70;;
4278;SDS011;2153;47.744;10.580;2022-09-09T05:07:18;29.23;;;3.03;;
4278;SDS011;2153;47.744;10.580;2022-09-09T05:09:45;13.10;;;2.40;;
4278;SDS011;2153;47.744;10.580;2022-09-09T05:12:14;12.30;;;2.20;;
4278;SDS011;2153;47.744;10.580;2022-09-09T05:14:42;16.50;;;2.53;;
4278;SDS011;2153;47.744;10.580;2022-09-09T05:17:09;14.50;;;2.73;;
4278;SDS011;2153;47.744;10.580;2022-09-09T05:19:37;13.07;;;2.30;;
4278;SDS011;2153;47.744;10.580;2022-09-09T05:22:04;18.20;;;3.17;;
4278;SDS011;2153;47.744;10.580;2022-09-09T05:24:31;14.20;;;2.70;;
4278;SDS011;2153;47.744;10.580;2022-09-09T05:26:58;22.73;;;2.90;;
4278;SDS011;2153;47.744;10.580;2022-09-09T05:29:27;17.80;;;2.80;;
4278;SDS011;2153;47.744;10.580;2022-09-09T05:31:55;14.97;;;2.27;;
4278;SDS011;2153;47.744;10.580;2022-09-09T05:34:22;14.50;;;2.50;;
4278;SDS011;2153;47.744;10.580;2022-09-09T05:36:49;22.13;;;2.57;;
4278;SDS011;2153;47.744;10.580;2022-09-09T05:39:16;15.00;;;2.23;;
4278;SDS011;2153;47.744;10.580;2022-09-09T05:41:42;15.37;;;2.30;;
4278;SDS011;2153;47.744;10.580;2022-09-09T05:44:09;13.80;;;2.37;;
4278;SDS011;2153;47.744;10.580;2022-09-09T05:46:36;12.70;;;1.80;;
4278;SDS011;2153;47.744;10.580;2022-09-09T05:49:04;15.00;;;1.83;;
4278;SDS011;2153;47.744;10.580;2022-09-09T05:51:31;12.80;;;1.63;;
4278;SDS011;2153;47.744;10.580;2022-09-09T05:53:58;15.00;;;2.13;;
4278;SDS011;2153;47.744;10.580;2022-09-09T05:56:25;13.50;;;1.80;;
4278;SDS011;2153;47.744;10.580;2022-09-09T05:58:53;14.40;;;1.80;;
4278;SDS011;2153;47.744;10.580;2022-09-09T06:01:21;11.73;;;1.80;;
4278;SDS011;2153;47.744;10.580;2022-09-09T06:03:49;15.10;;;1.60;;
4278;SDS011;2153;47.744;10.580;2022-09-09T06:06:19;13.10;;;1.63;;
4278;SDS011;2153;47.744;10.580;2022-09-09T06:08:47;21.03;;;1.57;;
4278;SDS011;2153;47.744;10.580;2022-09-09T06:11:16;11.93;;;1.50;;
4278;SDS011;2153;47.744;10.580;2022-09-09T06:13:44;12.70;;;1.70;;
4278;SDS011;2153;47.744;10.580;2022-09-09T06:16:14;13.10;;;1.80;;
4278;SDS011;2153;47.744;10.580;2022-09-09T06:18:42;11.47;;;1.50;;
4278;SDS011;2153;47.744;10.580;2022-09-09T06:21:11;16.07;;;1.90;;
4278;SDS011;2153;47.744;10.580;2022-09-09T06:23:42;13.97;;;2.13;;
4278;SDS011;2153;47.744;10.580;2022-09-09T06:26:11;17.63;;;2.07;;
4278;SDS011;2153;47.744;10.580;2022-09-09T06:28:39;18.10;;;1.83;;
4278;SDS011;2153;47.744;10.580;2022-09-09T06:31:08;14.67;;;2.00;;
4278;SDS011;2153;47.744;10.580;2022-09-09T06:33:37;15.67;;;1.97;;
4278;SDS011;2153;47.744;10.580;2022-09-09T06:36:06;13.43;;;1.93;;
4278;SDS011;2153;47.744;10.580;2022-09-09T06:38:35;13.63;;;2.10;;
4278;SDS011;2153;47.744;10.580;2022-09-09T06:41:04;13.20;;;2.23;;
4278;SDS011;2153;47.744;10.580;2022-09-09T06:43:31;13.00;;;1.67;;
4278;SDS011;2153;47.744;10.580;2022-09-09T06:46:00;11.60;;;1.53;;
4278;SDS011;2153;47.744;10.580;2022-09-09T06:48:29;13.60;;;1.90;;
4278;SDS011;2153;47.744;10.580;2022-09-09T06:51:00;17.83;;;1.40;;
4278;SDS011;2153;47.744;10.580;2022-09-09T06:53:28;11.60;;;1.50;;
4278;SDS011;2153;47.744;10.580;2022-09-09T06:55:58;11.80;;;1.43;;
4278;SDS011;2153;47.744;10.580;2022-09-09T06:58:27;16.13;;;1.73;;
4278;SDS011;2153;47.744;10.580;2022-09-09T07:01:01;13.23;;;1.57;;
4278;SDS011;2153;47.744;10.580;2022-09-09T07:03:28;14.87;;;1.60;;
4278;SDS011;2153;47.744;10.580;2022-09-09T07:05:55;12.70;;;1.37;;
4278;SDS011;2153;47.744;10.580;2022-09-09T07:08:22;13.40;;;1.70;;
4278;SDS011;2153;47.744;10.580;2022-09-09T07:10:50;16.23;;;1.50;;
4278;SDS011;2153;47.744;10.580;2022-09-09T07:13:18;14.60;;;1.83;;
4278;SDS011;2153;47.744;10.580;2022-09-09T07:15:51;12.83;;;1.70;;
4278;SDS011;2153;47.744;10.580;2022-09-09T07:18:18;13.50;;;1.67;;
4278;SDS011;2153;47.744;10.580;2022-09-09T07:20:52;13.70;;;1.53;;
4278;SDS011;2153;47.744;10.580;2022-09-09T07:23:19;12.13;;;1.60;;
4278;SDS011;2153;47.744;10.580;2022-09-09T07:25:46;11.30;;;1.20;;
4278;SDS011;2153;47.744;10.580;2022-09-09T07:28:13;13.10;;;1.57;;
4278;SDS011;2153;47.744;10.580;2022-09-09T07:30:40;12.43;;;1.30;;
4278;SDS011;2153;47.744;10.580;2022-09-09T07:33:09;13.60;;;1.10;;
4278;SDS011;2153;47.744;10.580;2022-09-09T07:35:36;12.67;;;1.40;;
4278;SDS011;2153;47.744;10.580;2022-09-09T07:38:02;13.87;;;1.50;;
4278;SDS011;2153;47.744;10.580;2022-09-09T07:40:31;14.47;;;1.30;;
4278;SDS011;2153;47.744;10.580;2022-09-09T07:42:58;12.10;;;1.40;;
4278;SDS011;2153;47.744;10.580;2022-09-09T07:45:25;13.93;;;1.10;;
4278;SDS011;2153;47.744;10.580;2022-09-09T07:47:53;16.97;;;1.83;;
4278;SDS011;2153;47.744;10.580;2022-09-09T07:50:23;13.60;;;1.10;;
4278;SDS011;2153;47.744;10.580;2022-09-09T07:52:50;11.90;;;1.60;;
4278;SDS011;2153;47.744;10.580;2022-09-09T07:55:17;12.47;;;1.73;;
4278;SDS011;2153;47.744;10.580;2022-09-09T07:57:44;11.20;;;1.10;;
4278;SDS011;2153;47.744;10.580;2022-09-09T08:00:12;16.40;;;1.20;;
4278;SDS011;2153;47.744;10.580;2022-09-09T08:02:39;12.43;;;1.30;;
4278;SDS011;2153;47.744;10.580;2022-09-09T08:05:07;15.60;;;1.03;;
4278;SDS011;2153;47.744;10.580;2022-09-09T08:07:35;11.10;;;1.03;;
4278;SDS011;2153;47.744;10.580;2022-09-09T08:10:02;11.70;;;1.17;;
4278;SDS011;2153;47.744;10.580;2022-09-09T08:12:29;13.40;;;1.33;;
4278;SDS011;2153;47.744;10.580;2022-09-09T08:14:56;10.67;;;0.77;;
4278;SDS011;2153;47.744;10.580;2022-09-09T08:17:22;11.20;;;1.00;;
4278;SDS011;2153;47.744;10.580;2022-09-09T08:19:49;12.03;;;1.10;;
4278;SDS011;2153;47.744;10.580;2022-09-09T08:22:16;12.20;;;1.23;;
4278;SDS011;2153;47.744;10.580;2022-09-09T08:24:44;11.00;;;0.93;;
4278;SDS011;2153;47.744;10.580;2022-09-09T08:27:12;11.30;;;0.87;;
4278;SDS011;2153;47.744;10.580;2022-09-09T08:29:39;11.60;;;0.80;;
4278;SDS011;2153;47.744;10.580;2022-09-09T08:32:05;15.13;;;1.00;;
4278;SDS011;2153;47.744;10.580;2022-09-09T08:34:33;11.93;;;1.10;;
4278;SDS011;2153;47.744;10.580;2022-09-09T08:37:00;12.27;;;1.20;;
4278;SDS011;2153;47.744;10.580;2022-09-09T08:39:27;15.07;;;1.20;;
4278;SDS011;2153;47.744;10.580;2022-09-09T08:42:05;11.57;;;0.80;;
4278;SDS011;2153;47.744;10.580;2022-09-09T08:44:52;12.40;;;0.93;;
4278;SDS011;2153;47.744;10.580;2022-09-09T08:47:33;12.63;;;1.23;;
4278;SDS011;2153;47.744;10.580;2022-09-09T08:50:13;12.67;;;1.37;;
4278;SDS011;2153;47.744;10.580;2022-09-09T08:52:49;12.95;;;0.90;;
4278;SDS011;2153;47.744;10.580;2022-09-09T08:55:22;12.63;;;1.10;;
4278;SDS011;2153;47.744;10.580;2022-09-09T08:57:54;13.83;;;1.07;;
4278;SDS011;2153;47.744;10.580;2022-09-09T09:00:27;11.30;;;0.83;;
4278;SDS011;2153;47.744;10.580;2022-09-09T09:03:00;12.53;;;0.90;;
4278;SDS011;2153;47.744;10.580;2022-09-09T09:05:36;10.93;;;0.80;;
4278;SDS011;2153;47.744;10.580;2022-09-09T09:08:07;14.40;;;1.30;;
4278;SDS011;2153;47.744;10.580;2022-09-09T09:10:44;11.70;;;1.00;;
4278;SDS011;2153;47.744;10.580;2022-09-09T09:13:15;13.47;;;1.13;;
4278;SDS011;2153;47.744;10.580;2022-09-09T09:15:46;11.77;;;1.13;;
4278;SDS011;2153;47.744;10.580;2022-09-09T09:18:18;21.50;;;2.10;;
4278;SDS011;2153;47.744;10.580;2022-09-09T09:20:48;12.40;;;1.13;;
4278;SDS011;2153;47.744;10.580;2022-09-09T09:23:21;12.53;;;1.10;;
4278;SDS011;2153;47.744;10.580;2022-09-09T09:25:49;11.97;;;1.37;;
4278;SDS011;2153;47.744;10.580;2022-09-09T09:28:24;11.30;;;0.93;;
4278;SDS011;2153;47.744;10.580;2022-09-09T09:30:53;11.30;;;0.90;;
4278;SDS011;2153;47.744;10.580;2022-09-09T09:33:24;12.83;;;1.47;;
4278;SDS011;2153;47.744;10.580;2022-09-09T09:35:54;14.63;;;1.20;;
4278;SDS011;2153;47.744;10.580;2022-09-09T09:38:21;11.60;;;0.80;;
4278;SDS011;2153;47.744;10.580;2022-09-09T09:40:50;12.60;;;1.40;;
4278;SDS011;2153;47.744;10.580;2022-09-09T09:43:20;11.50;;;0.90;;
4278;SDS011;2153;47.744;10.580;2022-09-09T09:45:50;11.60;;;0.87;;
4278;SDS011;2153;47.744;10.580;2022-09-09T09:48:17;14.90;;;1.10;;
4278;SDS011;2153;47.744;10.580;2022-09-09T09:50:47;12.03;;;1.10;;
4278;SDS011;2153;47.744;10.580;2022-09-09T09:53:17;14.23;;;0.90;;
4278;SDS011;2153;47.744;10.580;2022-09-09T09:55:48;13.47;;;1.00;;
4278;SDS011;2153;47.744;10.580;2022-09-09T09:58:20;13.07;;;1.10;;
4278;SDS011;2153;47.744;10.580;2022-09-09T10:00:49;11.87;;;1.07;;
4278;SDS011;2153;47.744;10.580;2022-09-09T10:03:21;13.10;;;1.10;;
4278;SDS011;2153;47.744;10.580;2022-09-09T10:05:49;11.63;;;0.93;;
4278;SDS011;2153;47.744;10.580;2022-09-09T10:08:17;11.37;;;1.20;;
4278;SDS011;2153;47.744;10.580;2022-09-09T10:13:40;11.43;;;0.90;;
4278;SDS011;2153;47.744;10.580;2022-09-09T10:16:24;13.60;;;1.03;;
4278;SDS011;2153;47.744;10.580;2022-09-09T10:19:02;13.10;;;1.43;;
4278;SDS011;2153;47.744;10.580;2022-09-09T10:21:44;11.50;;;1.10;;
4278;SDS011;2153;47.744;10.580;2022-09-09T10:27:32;15.03;;;1.00;;
4278;SDS011;2153;47.744;10.580;2022-09-09T10:30:09;11.10;;;0.87;;
4278;SDS011;2153;47.744;10.580;2022-09-09T10:32:44;10.67;;;0.87;;
4278;SDS011;2153;47.744;10.580;2022-09-09T10:35:29;11.00;;;1.10;;
4278;SDS011;2153;47.744;10.580;2022-09-09T10:38:15;10.97;;;0.80;;
4278;SDS011;2153;47.744;10.580;2022-09-09T10:40:48;11.70;;;1.00;;
4278;SDS011;2153;47.744;10.580;2022-09-09T10:43:46;10.60;;;0.80;;
4278;SDS011;2153;47.744;10.580;2022-09-09T10:46:35;12.37;;;1.17;;
4278;SDS011;2153;47.744;10.580;2022-09-09T10:49:21;11.63;;;1.40;;
4278;SDS011;2153;47.744;10.580;2022-09-09T10:52:01;11.70;;;1.20;;
4278;SDS011;2153;47.744;10.580;2022-09-09T10:54:36;13.00;;;1.50;;
4278;SDS011;2153;47.744;10.580;2022-09-09T10:57:17;13.57;;;1.80;;
4278;SDS011;2153;47.744;10.580;2022-09-09T10:59:57;13.00;;;1.30;;
4278;SDS011;2153;47.744;10.580;2022-09-09T11:02:30;11.73;;;1.30;;
4278;SDS011;2153;47.744;10.580;2022-09-09T11:05:00;14.70;;;1.23;;
4278;SDS011;2153;47.744;10.580;2022-09-09T11:07:33;14.37;;;1.50;;
4278;SDS011;2153;47.744;10.580;2022-09-09T11:10:11;13.07;;;1.10;;
4278;SDS011;2153;47.744;10.580;2022-09-09T11:12:44;12.63;;;1.10;;
4278;SDS011;2153;47.744;10.580;2022-09-09T11:15:14;13.07;;;1.40;;
4278;SDS011;2153;47.744;10.580;2022-09-09T11:17:46;14.83;;;1.20;;
4278;SDS011;2153;47.744;10.580;2022-09-09T11:20:17;17.17;;;1.70;;
4278;SDS011;2153;47.744;10.580;2022-09-09T11:22:46;14.70;;;1.27;;
4278;SDS011;2153;47.744;10.580;2022-09-09T11:25:18;16.15;;;1.75;;
4278;SDS011;2153;47.744;10.580;2022-09-09T11:27:56;12.93;;;1.10;;
4278;SDS011;2153;47.744;10.580;2022-09-09T11:30:38;14.37;;;1.37;;
4278;SDS011;2153;47.744;10.580;2022-09-09T11:39:02;13.00;;;1.30;;
4278;SDS011;2153;47.744;10.580;2022-09-09T11:41:53;18.60;;;1.30;;
4278;SDS011;2153;47.744;10.580;2022-09-09T11:44:24;13.83;;;1.30;;
4278;SDS011;2153;47.744;10.580;2022-09-09T11:46:54;15.23;;;1.33;;
4278;SDS011;2153;47.744;10.580;2022-09-09T11:49:26;16.50;;;1.53;;
4278;SDS011;2153;47.744;10.580;2022-09-09T11:51:56;11.80;;;1.10;;
4278;SDS011;2153;47.744;10.580;2022-09-09T11:54:28;12.27;;;1.20;;
4278;SDS011;2153;47.744;10.580;2022-09-09T11:56:57;12.43;;;1.20;;
4278;SDS011;2153;47.744;10.580;2022-09-09T11:59:25;12.07;;;0.90;;
4278;SDS011;2153;47.744;10.580;2022-09-09T12:01:54;15.67;;;1.40;;
4278;SDS011;2153;47.744;10.580;2022-09-09T12:07:21;13.03;;;1.27;;
4278;SDS011;2153;47.744;10.580;2022-09-09T12:10:00;12.40;;;1.27;;
4278;SDS011;2153;47.744;10.580;2022-09-09T12:12:31;13.53;;;1.17;;
4278;SDS011;2153;47.744;10.580;2022-09-09T12:17:49;13.40;;;1.33;;
4278;SDS011;2153;47.744;10.580;2022-09-09T12:20:18;14.30;;;1.67;;
4278;SDS011;2153;47.744;10.580;2022-09-09T12:22:49;14.20;;;1.23;;
4278;SDS011;2153;47.744;10.580;2022-09-09T12:25:29;13.00;;;1.30;;
4278;SDS011;2153;47.744;10.580;2022-09-09T12:28:04;12.60;;;1.17;;
4278;SDS011;2153;47.744;10.580;2022-09-09T12:30:37;12.03;;;1.80;;
4278;SDS011;2153;47.744;10.580;2022-09-09T12:33:11;15.33;;;2.13;;
4278;SDS011;2153;47.744;10.580;2022-09-09T12:35:40;13.63;;;1.83;;
4278;SDS011;2153;47.744;10.580;2022-09-09T12:38:10;13.80;;;1.30;;
4278;SDS011;2153;47.744;10.580;2022-09-09T12:40:43;13.13;;;1.53;;
4278;SDS011;2153;47.744;10.580;2022-09-09T12:43:21;16.00;;;1.20;;
4278;SDS011;2153;47.744;10.580;2022-09-09T12:45:49;12.67;;;1.30;;
4278;SDS011;2153;47.744;10.580;2022-09-09T12:48:22;16.00;;;1.20;;
4278;SDS011;2153;47.744;10.580;2022-09-09T12:50:54;12.33;;;1.00;;
4278;SDS011;2153;47.744;10.580;2022-09-09T12:53:23;12.40;;;1.30;;
4278;SDS011;2153;47.744;10.580;2022-09-09T12:55:55;13.33;;;1.40;;
4278;SDS011;2153;47.744;10.580;2022-09-09T12:58:25;11.63;;;1.00;;
4278;SDS011;2153;47.744;10.580;2022-09-09T13:00:57;12.20;;;1.40;;
4278;SDS011;2153;47.744;10.580;2022-09-09T13:03:25;12.53;;;1.23;;
4278;SDS011;2153;47.744;10.580;2022-09-09T13:05:53;12.60;;;1.40;;
4278;SDS011;2153;47.744;10.580;2022-09-09T13:08:25;13.23;;;1.10;;
4278;SDS011;2153;47.744;10.580;2022-09-09T13:10:54;12.50;;;1.30;;
4278;SDS011;2153;47.744;10.580;2022-09-09T13:13:26;11.70;;;1.07;;
4278;SDS011;2153;47.744;10.580;2022-09-09T13:15:56;15.40;;;1.20;;
4278;SDS011;2153;47.744;10.580;2022-09-09T13:18:24;12.70;;;1.13;;
4278;SDS011;2153;47.744;10.580;2022-09-09T13:20:54;10.97;;;1.00;;
4278;SDS011;2153;47.744;10.580;2022-09-09T13:23:23;14.70;;;1.60;;
4278;SDS011;2153;47.744;10.580;2022-09-09T13:25:56;11.40;;;1.10;;
4278;SDS011;2153;47.744;10.580;2022-09-09T13:28:26;13.57;;;1.30;;
4278;SDS011;2153;47.744;10.580;2022-09-09T13:30:55;12.10;;;1.30;;
4278;SDS011;2153;47.744;10.580;2022-09-09T13:33:29;11.50;;;1.17;;
4278;SDS011;2153;47.744;10.580;2022-09-09T13:35:58;13.20;;;1.63;;
4278;SDS011;2153;47.744;10.580;2022-09-09T13:38:28;12.33;;;1.43;;
4278;SDS011;2153;47.744;10.580;2022-09-09T13:40:59;16.00;;;1.93;;
4278;SDS011;2153;47.744;10.580;2022-09-09T13:43:29;13.40;;;1.77;;
4278;SDS011;2153;47.744;10.580;2022-09-09T13:46:00;12.50;;;1.53;;
4278;SDS011;2153;47.744;10.580;2022-09-09T13:48:29;15.50;;;1.50;;
4278;SDS011;2153;47.744;10.580;2022-09-09T13:50:58;16.50;;;1.53;;
4278;SDS011;2153;47.744;10.580;2022-09-09T13:53:30;12.57;;;1.50;;
4278;SDS011;2153;47.744;10.580;2022-09-09T13:55:59;14.90;;;1.27;;
4278;SDS011;2153;47.744;10.580;2022-09-09T13:58:26;12.10;;;1.33;;
4278;SDS011;2153;47.744;10.580;2022-09-09T14:00:53;13.30;;;1.33;;
4278;SDS011;2153;47.744;10.580;2022-09-09T14:03:20;14.40;;;1.90;;
4278;SDS011;2153;47.744;10.580;2022-09-09T14:05:47;12.60;;;1.30;;
4278;SDS011;2153;47.744;10.580;2022-09-09T14:08:20;13.33;;;1.50;;
4278;SDS011;2153;47.744;10.580;2022-09-09T14:10:50;13.13;;;1.53;;
4278;SDS011;2153;47.744;10.580;2022-09-09T14:13:18;11.90;;;1.30;;
4278;SDS011;2153;47.744;10.580;2022-09-09T14:15:47;12.37;;;1.10;;
4278;SDS011;2153;47.744;10.580;2022-09-09T14:18:14;12.67;;;1.50;;
4278;SDS011;2153;47.744;10.580;2022-09-09T14:20:41;11.13;;;1.13;;
4278;SDS011;2153;47.744;10.580;2022-09-09T14:23:09;12.33;;;1.10;;
4278;SDS011;2153;47.744;10.580;2022-09-09T14:25:39;11.40;;;1.23;;
4278;SDS011;2153;47.744;10.580;2022-09-09T14:28:07;11.20;;;1.27;;
4278;SDS011;2153;47.744;10.580;2022-09-09T14:30:37;11.30;;;1.10;;
4278;SDS011;2153;47.744;10.580;2022-09-09T14:33:05;12.97;;;1.50;;
4278;SDS011;2153;47.744;10.580;2022-09-09T14:35:32;11.60;;;1.10;;
4278;SDS011;2153;47.744;10.580;2022-09-09T14:37:59;11.07;;;1.00;;
4278;SDS011;2153;47.744;10.580;2022-09-09T14:40:27;11.70;;;0.90;;
4278;SDS011;2153;47.744;10.580;2022-09-09T14:42:54;10.67;;;0.90;;
4278;SDS011;2153;47.744;10.580;2022-09-09T14:45:21;12.83;;;1.17;;
4278;SDS011;2153;47.744;10.580;2022-09-09T14:47:51;11.00;;;1.03;;
4278;SDS011;2153;47.744;10.580;2022-09-09T14:50:18;12.00;;;0.87;;
4278;SDS011;2153;47.744;10.580;2022-09-09T14:52:45;11.70;;;1.23;;
4278;SDS011;2153;47.744;10.580;2022-09-09T14:55:13;11.30;;;1.37;;
4278;SDS011;2153;47.744;10.580;2022-09-09T14:57:40;10.60;;;0.80;;
4278;SDS011;2153;47.744;10.580;2022-09-09T15:00:08;19.03;;;1.20;;
4278;SDS011;2153;47.744;10.580;2022-09-09T15:02:36;13.10;;;0.90;;
4278;SDS011;2153;47.744;10.580;2022-09-09T15:05:05;12.40;;;1.00;;
4278;SDS011;2153;47.744;10.580;2022-09-09T15:07:33;11.40;;;1.00;;
4278;SDS011;2153;47.744;10.580;2022-09-09T15:10:00;11.80;;;1.07;;
4278;SDS011;2153;47.744;10.580;2022-09-09T15:12:27;13.03;;;1.27;;
4278;SDS011;2153;47.744;10.580;2022-09-09T15:14:55;11.50;;;1.10;;
4278;SDS011;2153;47.744;10.580;2022-09-09T15:17:22;15.00;;;1.37;;
4278;SDS011;2153;47.744;10.580;2022-09-09T15:19:52;10.90;;;1.20;;
4278;SDS011;2153;47.744;10.580;2022-09-09T15:22:20;13.70;;;1.30;;
4278;SDS011;2153;47.744;10.580;2022-09-09T15:24:49;13.07;;;1.47;;
4278;SDS011;2153;47.744;10.580;2022-09-09T15:27:16;13.87;;;1.40;;
4278;SDS011;2153;47.744;10.580;2022-09-09T15:29:43;11.27;;;1.17;;